sensor_id;sensor_type;location;lat;lon;timestamp;P1;durP1;ratioP1;P2;durP2;ratioP2
78794;SDS011;68144;50.892;3.064;2023-03-08T00:00:25;1.90;;;1.40;;
78794;SDS011;68144;50.892;3.064;2023-03-08T00:00:55;2.20;;;1.70;;
78794;SDS011;68144;50.892;3.064;2023-03-08T00:01:26;2.10;;;1.40;;
78794;SDS011;68144;50.892;3.064;2023-03-08T00:01:56;1.90;;;1.40;;
78794;SDS011;68144;50.892;3.064;2023-03-08T00:02:27;1.80;;;1.30;;
78794;SDS011;68144;50.892;3.064;2023-03-08T00:02:57;1.90;;;1.50;;
78794;SDS011;68144;50.892;3.064;2023-03-08T00:03:28;1.80;;;1.40;;
78794;SDS011;68144;50.892;3.064;2023-03-08T00:03:58;2.50;;;1.40;;
78794;SDS011;68144;50.892;3.064;2023-03-08T00:04:29;2.20;;;1.90;;
78794;SDS011;68144;50.892;3.064;2023-03-08T00:05:00;2.20;;;1.40;;
78794;SDS011;68144;50.892;3.064;2023-03-08T00:05:31;1.60;;;1.30;;
78794;SDS011;68144;50.892;3.064;2023-03-08T00:06:05;2.40;;;1.70;;
78794;SDS011;68144;50.892;3.064;2023-03-08T00:06:36;2.00;;;1.40;;
78794;SDS011;68144;50.892;3.064;2023-03-08T00:07:07;1.90;;;1.30;;
78794;SDS011;68144;50.892;3.064;2023-03-08T00:07:37;2.00;;;1.80;;
78794;SDS011;68144;50.892;3.064;2023-03-08T00:08:08;2.10;;;1.50;;
78794;SDS011;68144;50.892;3.064;2023-03-08T00:08:39;4.20;;;1.70;;
78794;SDS011;68144;50.892;3.064;2023-03-08T00:09:09;2.20;;;2.00;;
78794;SDS011;68144;50.892;3.064;2023-03-08T00:09:40;2.00;;;1.50;;
78794;SDS011;68144;50.892;3.064;2023-03-08T00:10:10;2.10;;;1.40;;
78794;SDS011;68144;50.892;3.064;2023-03-08T00:10:41;2.20;;;1.40;;
78794;SDS011;68144;50.892;3.064;2023-03-08T00:11:12;1.80;;;1.30;;
78794;SDS011;68144;50.892;3.064;2023-03-08T00:11:42;1.80;;;1.50;;
78794;SDS011;68144;50.892;3.064;2023-03-08T00:12:13;2.40;;;2.20;;
78794;SDS011;68144;50.892;3.064;2023-03-08T00:12:44;1.90;;;1.70;;
78794;SDS011;68144;50.892;3.064;2023-03-08T00:13:15;1.70;;;1.10;;
78794;SDS011;68144;50.892;3.064;2023-03-08T00:13:45;2.30;;;1.70;;
78794;SDS011;68144;50.892;3.064;2023-03-08T00:14:16;2.70;;;1.30;;
78794;SDS011;68144;50.892;3.064;2023-03-08T00:14:48;2.70;;;1.50;;
78794;SDS011;68144;50.892;3.064;2023-03-08T00:15:19;3.00;;;1.70;;
78794;SDS011;68144;50.892;3.064;2023-03-08T00:15:49;1.90;;;1.30;;
78794;SDS011;68144;50.892;3.064;2023-03-08T00:16:52;1.90;;;1.40;;
78794;SDS011;68144;50.892;3.064;2023-03-08T00:17:22;1.80;;;1.30;;
78794;SDS011;68144;50.892;3.064;2023-03-08T00:17:53;2.20;;;1.60;;
78794;SDS011;68144;50.892;3.064;2023-03-08T00:18:24;2.10;;;1.60;;
78794;SDS011;68144;50.892;3.064;2023-03-08T00:18:54;2.10;;;1.60;;
78794;SDS011;68144;50.892;3.064;2023-03-08T00:19:25;2.30;;;1.70;;
78794;SDS011;68144;50.892;3.064;2023-03-08T00:19:55;2.00;;;1.40;;
78794;SDS011;68144;50.892;3.064;2023-03-08T00:20:26;2.30;;;1.50;;
78794;SDS011;68144;50.892;3.064;2023-03-08T00:21:00;1.90;;;1.30;;
78794;SDS011;68144;50.892;3.064;2023-03-08T00:21:41;2.60;;;1.20;;
78794;SDS011;68144;50.892;3.064;2023-03-08T00:22:12;2.60;;;1.90;;
78794;SDS011;68144;50.892;3.064;2023-03-08T00:22:42;2.50;;;1.90;;
78794;SDS011;68144;50.892;3.064;2023-03-08T00:23:13;2.50;;;1.50;;
78794;SDS011;68144;50.892;3.064;2023-03-08T00:23:44;2.00;;;1.80;;
78794;SDS011;68144;50.892;3.064;2023-03-08T00:24:15;2.10;;;1.70;;
78794;SDS011;68144;50.892;3.064;2023-03-08T00:24:46;3.30;;;1.50;;
78794;SDS011;68144;50.892;3.064;2023-03-08T00:25:17;2.50;;;1.90;;
78794;SDS011;68144;50.892;3.064;2023-03-08T00:25:51;1.90;;;1.70;;
78794;SDS011;68144;50.892;3.064;2023-03-08T00:26:22;2.00;;;1.40;;
78794;SDS011;68144;50.892;3.064;2023-03-08T00:26:53;1.60;;;1.40;;
78794;SDS011;68144;50.892;3.064;2023-03-08T00:27:23;2.30;;;1.70;;
78794;SDS011;68144;50.892;3.064;2023-03-08T00:27:54;2.00;;;1.40;;
78794;SDS011;68144;50.892;3.064;2023-03-08T00:28:25;2.80;;;1.40;;
78794;SDS011;68144;50.892;3.064;2023-03-08T00:28:55;2.70;;;1.50;;
78794;SDS011;68144;50.892;3.064;2023-03-08T00:29:26;1.90;;;1.50;;
78794;SDS011;68144;50.892;3.064;2023-03-08T00:30:00;1.70;;;1.30;;
78794;SDS011;68144;50.892;3.064;2023-03-08T00:30:33;2.20;;;1.50;;
78794;SDS011;68144;50.892;3.064;2023-03-08T00:31:07;2.00;;;1.40;;
78794;SDS011;68144;50.892;3.064;2023-03-08T00:31:40;2.70;;;1.70;;
78794;SDS011;68144;50.892;3.064;2023-03-08T00:32:10;2.60;;;2.00;;
78794;SDS011;68144;50.892;3.064;2023-03-08T00:32:41;2.50;;;1.50;;
78794;SDS011;68144;50.892;3.064;2023-03-08T00:33:11;2.00;;;1.40;;
78794;SDS011;68144;50.892;3.064;2023-03-08T00:33:42;2.50;;;1.70;;
78794;SDS011;68144;50.892;3.064;2023-03-08T00:34:12;1.90;;;1.50;;
78794;SDS011;68144;50.892;3.064;2023-03-08T00:34:44;2.50;;;2.10;;
78794;SDS011;68144;50.892;3.064;2023-03-08T00:35:16;2.30;;;1.40;;
78794;SDS011;68144;50.892;3.064;2023-03-08T00:35:58;1.90;;;1.70;;
78794;SDS011;68144;50.892;3.064;2023-03-08T00:36:36;3.10;;;1.60;;
78794;SDS011;68144;50.892;3.064;2023-03-08T00:37:07;2.20;;;1.60;;
78794;SDS011;68144;50.892;3.064;2023-03-08T00:37:37;3.60;;;1.30;;
78794;SDS011;68144;50.892;3.064;2023-03-08T00:38:08;2.10;;;1.50;;
78794;SDS011;68144;50.892;3.064;2023-03-08T00:38:38;2.10;;;1.30;;
78794;SDS011;68144;50.892;3.064;2023-03-08T00:39:09;2.00;;;1.40;;
78794;SDS011;68144;50.892;3.064;2023-03-08T00:39:40;2.30;;;1.70;;
78794;SDS011;68144;50.892;3.064;2023-03-08T00:40:11;2.60;;;2.00;;
78794;SDS011;68144;50.892;3.064;2023-03-08T00:40:42;2.60;;;1.50;;
78794;SDS011;68144;50.892;3.064;2023-03-08T00:41:13;2.20;;;1.40;;
78794;SDS011;68144;50.892;3.064;2023-03-08T00:41:45;1.90;;;1.30;;
78794;SDS011;68144;50.892;3.064;2023-03-08T00:42:48;1.80;;;1.40;;
78794;SDS011;68144;50.892;3.064;2023-03-08T00:43:19;2.70;;;1.70;;
78794;SDS011;68144;50.892;3.064;2023-03-08T00:43:49;1.60;;;1.40;;
78794;SDS011;68144;50.892;3.064;2023-03-08T00:44:20;3.40;;;2.00;;
78794;SDS011;68144;50.892;3.064;2023-03-08T00:44:51;2.70;;;1.40;;
78794;SDS011;68144;50.892;3.064;2023-03-08T00:45:21;2.10;;;1.40;;
78794;SDS011;68144;50.892;3.064;2023-03-08T00:45:52;2.10;;;1.50;;
78794;SDS011;68144;50.892;3.064;2023-03-08T00:46:23;2.30;;;1.60;;
78794;SDS011;68144;50.892;3.064;2023-03-08T00:46:55;2.60;;;1.40;;
78794;SDS011;68144;50.892;3.064;2023-03-08T00:47:25;2.10;;;1.60;;
78794;SDS011;68144;50.892;3.064;2023-03-08T00:47:56;1.90;;;1.30;;
78794;SDS011;68144;50.892;3.064;2023-03-08T00:48:26;2.20;;;1.40;;
78794;SDS011;68144;50.892;3.064;2023-03-08T00:48:57;2.20;;;1.60;;
78794;SDS011;68144;50.892;3.064;2023-03-08T00:50:01;2.20;;;1.50;;
78794;SDS011;68144;50.892;3.064;2023-03-08T00:50:31;2.30;;;1.60;;
78794;SDS011;68144;50.892;3.064;2023-03-08T00:51:02;2.20;;;1.40;;
78794;SDS011;68144;50.892;3.064;2023-03-08T00:51:33;3.00;;;1.60;;
78794;SDS011;68144;50.892;3.064;2023-03-08T00:52:04;2.30;;;1.60;;
78794;SDS011;68144;50.892;3.064;2023-03-08T00:52:35;2.30;;;1.70;;
78794;SDS011;68144;50.892;3.064;2023-03-08T00:53:05;2.00;;;1.50;;
78794;SDS011;68144;50.892;3.064;2023-03-08T00:53:36;2.30;;;1.90;;
78794;SDS011;68144;50.892;3.064;2023-03-08T00:54:06;2.10;;;1.90;;
78794;SDS011;68144;50.892;3.064;2023-03-08T00:54:37;2.60;;;1.90;;
78794;SDS011;68144;50.892;3.064;2023-03-08T00:55:08;2.00;;;1.50;;
78794;SDS011;68144;50.892;3.064;2023-03-08T00:55:46;3.20;;;2.40;;
78794;SDS011;68144;50.892;3.064;2023-03-08T00:56:18;1.90;;;1.50;;
78794;SDS011;68144;50.892;3.064;2023-03-08T00:56:49;2.80;;;1.60;;
78794;SDS011;68144;50.892;3.064;2023-03-08T00:57:19;3.20;;;1.80;;
78794;SDS011;68144;50.892;3.064;2023-03-08T00:57:50;2.00;;;1.60;;
78794;SDS011;68144;50.892;3.064;2023-03-08T00:58:21;2.00;;;1.30;;
78794;SDS011;68144;50.892;3.064;2023-03-08T00:58:53;2.40;;;1.50;;
78794;SDS011;68144;50.892;3.064;2023-03-08T00:59:23;2.10;;;1.30;;
78794;SDS011;68144;50.892;3.064;2023-03-08T00:59:54;2.30;;;2.10;;
78794;SDS011;68144;50.892;3.064;2023-03-08T01:00:25;2.40;;;1.60;;
78794;SDS011;68144;50.892;3.064;2023-03-08T01:00:55;2.40;;;1.70;;
78794;SDS011;68144;50.892;3.064;2023-03-08T01:01:26;2.20;;;1.70;;
78794;SDS011;68144;50.892;3.064;2023-03-08T01:01:57;2.00;;;1.80;;
78794;SDS011;68144;50.892;3.064;2023-03-08T01:02:28;1.80;;;1.30;;
78794;SDS011;68144;50.892;3.064;2023-03-08T01:03:00;3.30;;;1.60;;
78794;SDS011;68144;50.892;3.064;2023-03-08T01:03:31;2.90;;;1.70;;
78794;SDS011;68144;50.892;3.064;2023-03-08T01:04:02;1.90;;;1.40;;
78794;SDS011;68144;50.892;3.064;2023-03-08T01:04:33;2.20;;;1.50;;
78794;SDS011;68144;50.892;3.064;2023-03-08T01:05:03;2.30;;;1.60;;
78794;SDS011;68144;50.892;3.064;2023-03-08T01:05:40;2.50;;;1.60;;
78794;SDS011;68144;50.892;3.064;2023-03-08T01:06:16;2.20;;;1.30;;
78794;SDS011;68144;50.892;3.064;2023-03-08T01:06:47;2.00;;;1.80;;
78794;SDS011;68144;50.892;3.064;2023-03-08T01:07:17;3.30;;;3.10;;
78794;SDS011;68144;50.892;3.064;2023-03-08T01:07:48;2.50;;;2.10;;
78794;SDS011;68144;50.892;3.064;2023-03-08T01:08:19;3.60;;;2.20;;
78794;SDS011;68144;50.892;3.064;2023-03-08T01:09:21;2.90;;;1.60;;
78794;SDS011;68144;50.892;3.064;2023-03-08T01:09:53;2.50;;;1.60;;
78794;SDS011;68144;50.892;3.064;2023-03-08T01:10:25;1.80;;;1.40;;
78794;SDS011;68144;50.892;3.064;2023-03-08T01:10:57;2.40;;;1.60;;
78794;SDS011;68144;50.892;3.064;2023-03-08T01:11:29;2.00;;;1.50;;
78794;SDS011;68144;50.892;3.064;2023-03-08T01:11:59;2.40;;;1.70;;
78794;SDS011;68144;50.892;3.064;2023-03-08T01:12:31;2.20;;;1.50;;
78794;SDS011;68144;50.892;3.064;2023-03-08T01:13:03;3.00;;;1.60;;
78794;SDS011;68144;50.892;3.064;2023-03-08T01:13:35;2.20;;;1.70;;
78794;SDS011;68144;50.892;3.064;2023-03-08T01:14:06;3.50;;;1.80;;
78794;SDS011;68144;50.892;3.064;2023-03-08T01:14:39;2.10;;;1.40;;
78794;SDS011;68144;50.892;3.064;2023-03-08T01:15:10;2.20;;;1.90;;
78794;SDS011;68144;50.892;3.064;2023-03-08T01:15:41;3.00;;;2.10;;
78794;SDS011;68144;50.892;3.064;2023-03-08T01:16:15;2.40;;;1.70;;
78794;SDS011;68144;50.892;3.064;2023-03-08T01:16:47;1.70;;;1.40;;
78794;SDS011;68144;50.892;3.064;2023-03-08T01:17:18;2.20;;;1.60;;
78794;SDS011;68144;50.892;3.064;2023-03-08T01:17:48;2.10;;;1.60;;
78794;SDS011;68144;50.892;3.064;2023-03-08T01:18:19;2.30;;;1.50;;
78794;SDS011;68144;50.892;3.064;2023-03-08T01:18:50;1.90;;;1.50;;
78794;SDS011;68144;50.892;3.064;2023-03-08T01:19:23;3.10;;;1.60;;
78794;SDS011;68144;50.892;3.064;2023-03-08T01:19:53;2.30;;;1.50;;
78794;SDS011;68144;50.892;3.064;2023-03-08T01:20:24;2.40;;;1.30;;
78794;SDS011;68144;50.892;3.064;2023-03-08T01:20:58;1.90;;;1.40;;
78794;SDS011;68144;50.892;3.064;2023-03-08T01:21:33;3.20;;;1.50;;
78794;SDS011;68144;50.892;3.064;2023-03-08T01:22:04;2.50;;;1.60;;
78794;SDS011;68144;50.892;3.064;2023-03-08T01:22:36;3.50;;;3.20;;
78794;SDS011;68144;50.892;3.064;2023-03-08T01:23:06;2.40;;;1.70;;
78794;SDS011;68144;50.892;3.064;2023-03-08T01:23:37;1.90;;;1.70;;
78794;SDS011;68144;50.892;3.064;2023-03-08T01:24:09;2.50;;;1.60;;
78794;SDS011;68144;50.892;3.064;2023-03-08T01:24:43;2.10;;;1.70;;
78794;SDS011;68144;50.892;3.064;2023-03-08T01:25:17;2.60;;;2.00;;
78794;SDS011;68144;50.892;3.064;2023-03-08T01:25:47;2.50;;;1.70;;
78794;SDS011;68144;50.892;3.064;2023-03-08T01:26:19;2.30;;;1.40;;
78794;SDS011;68144;50.892;3.064;2023-03-08T01:26:51;2.40;;;1.60;;
78794;SDS011;68144;50.892;3.064;2023-03-08T01:27:25;3.00;;;1.30;;
78794;SDS011;68144;50.892;3.064;2023-03-08T01:27:55;2.30;;;1.60;;
78794;SDS011;68144;50.892;3.064;2023-03-08T01:28:26;2.80;;;1.90;;
78794;SDS011;68144;50.892;3.064;2023-03-08T01:28:57;2.40;;;2.20;;
78794;SDS011;68144;50.892;3.064;2023-03-08T01:29:27;2.00;;;1.40;;
78794;SDS011;68144;50.892;3.064;2023-03-08T01:30:00;2.10;;;1.50;;
78794;SDS011;68144;50.892;3.064;2023-03-08T01:30:31;2.50;;;1.40;;
78794;SDS011;68144;50.892;3.064;2023-03-08T01:31:09;3.30;;;1.60;;
78794;SDS011;68144;50.892;3.064;2023-03-08T01:31:43;2.60;;;1.70;;
78794;SDS011;68144;50.892;3.064;2023-03-08T01:32:14;2.40;;;1.10;;
78794;SDS011;68144;50.892;3.064;2023-03-08T01:32:44;1.90;;;1.70;;
78794;SDS011;68144;50.892;3.064;2023-03-08T01:34:05;1.80;;;1.40;;
78794;SDS011;68144;50.892;3.064;2023-03-08T01:34:36;2.40;;;1.80;;
78794;SDS011;68144;50.892;3.064;2023-03-08T01:35:07;2.10;;;1.60;;
78794;SDS011;68144;50.892;3.064;2023-03-08T01:35:38;2.40;;;1.50;;
78794;SDS011;68144;50.892;3.064;2023-03-08T01:36:10;3.00;;;1.60;;
78794;SDS011;68144;50.892;3.064;2023-03-08T01:36:47;2.60;;;1.70;;
78794;SDS011;68144;50.892;3.064;2023-03-08T01:37:20;2.60;;;2.10;;
78794;SDS011;68144;50.892;3.064;2023-03-08T01:37:51;1.90;;;1.40;;
78794;SDS011;68144;50.892;3.064;2023-03-08T01:38:25;2.10;;;1.80;;
78794;SDS011;68144;50.892;3.064;2023-03-08T01:38:58;2.10;;;1.50;;
78794;SDS011;68144;50.892;3.064;2023-03-08T01:39:30;2.80;;;1.30;;
78794;SDS011;68144;50.892;3.064;2023-03-08T01:40:01;2.70;;;1.50;;
78794;SDS011;68144;50.892;3.064;2023-03-08T01:40:33;1.60;;;1.30;;
78794;SDS011;68144;50.892;3.064;2023-03-08T01:41:04;2.50;;;1.40;;
78794;SDS011;68144;50.892;3.064;2023-03-08T01:41:36;2.00;;;1.50;;
78794;SDS011;68144;50.892;3.064;2023-03-08T01:42:07;2.20;;;1.40;;
78794;SDS011;68144;50.892;3.064;2023-03-08T01:42:38;1.90;;;1.40;;
78794;SDS011;68144;50.892;3.064;2023-03-08T01:43:10;2.30;;;1.30;;
78794;SDS011;68144;50.892;3.064;2023-03-08T01:44:17;2.00;;;1.30;;
78794;SDS011;68144;50.892;3.064;2023-03-08T01:44:54;2.20;;;1.50;;
78794;SDS011;68144;50.892;3.064;2023-03-08T01:46:32;1.30;;;1.00;;
78794;SDS011;68144;50.892;3.064;2023-03-08T01:47:25;2.50;;;2.00;;
78794;SDS011;68144;50.892;3.064;2023-03-08T01:48:23;2.10;;;1.40;;
78794;SDS011;68144;50.892;3.064;2023-03-08T01:50:29;1.80;;;1.40;;
78794;SDS011;68144;50.892;3.064;2023-03-08T01:50:59;3.20;;;1.30;;
78794;SDS011;68144;50.892;3.064;2023-03-08T01:51:33;1.70;;;1.60;;
78794;SDS011;68144;50.892;3.064;2023-03-08T01:52:18;1.30;;;0.90;;
78794;SDS011;68144;50.892;3.064;2023-03-08T01:52:58;2.10;;;1.50;;
78794;SDS011;68144;50.892;3.064;2023-03-08T01:53:29;1.90;;;1.40;;
78794;SDS011;68144;50.892;3.064;2023-03-08T01:54:02;1.70;;;1.40;;
78794;SDS011;68144;50.892;3.064;2023-03-08T01:55:09;2.30;;;1.30;;
78794;SDS011;68144;50.892;3.064;2023-03-08T01:55:41;3.30;;;1.50;;
78794;SDS011;68144;50.892;3.064;2023-03-08T01:56:12;2.30;;;1.70;;
78794;SDS011;68144;50.892;3.064;2023-03-08T01:56:45;2.50;;;1.40;;
78794;SDS011;68144;50.892;3.064;2023-03-08T01:57:50;2.80;;;2.60;;
78794;SDS011;68144;50.892;3.064;2023-03-08T01:58:23;3.20;;;1.40;;
78794;SDS011;68144;50.892;3.064;2023-03-08T01:59:26;1.80;;;1.60;;
78794;SDS011;68144;50.892;3.064;2023-03-08T02:00:57;3.30;;;2.80;;
78794;SDS011;68144;50.892;3.064;2023-03-08T02:01:28;3.30;;;2.40;;
78794;SDS011;68144;50.892;3.064;2023-03-08T02:02:00;6.90;;;3.00;;
78794;SDS011;68144;50.892;3.064;2023-03-08T02:03:06;3.50;;;3.10;;
78794;SDS011;68144;50.892;3.064;2023-03-08T02:03:38;3.90;;;2.50;;
78794;SDS011;68144;50.892;3.064;2023-03-08T02:04:09;3.90;;;3.60;;
78794;SDS011;68144;50.892;3.064;2023-03-08T02:04:41;4.50;;;3.00;;
78794;SDS011;68144;50.892;3.064;2023-03-08T02:05:14;4.50;;;4.20;;
78794;SDS011;68144;50.892;3.064;2023-03-08T02:05:46;4.60;;;3.20;;
78794;SDS011;68144;50.892;3.064;2023-03-08T02:06:52;3.40;;;2.70;;
78794;SDS011;68144;50.892;3.064;2023-03-08T02:07:24;3.10;;;2.80;;
78794;SDS011;68144;50.892;3.064;2023-03-08T02:07:55;3.50;;;2.80;;
78794;SDS011;68144;50.892;3.064;2023-03-08T02:09:00;3.80;;;2.90;;
78794;SDS011;68144;50.892;3.064;2023-03-08T02:09:34;3.20;;;2.50;;
78794;SDS011;68144;50.892;3.064;2023-03-08T02:10:04;3.60;;;2.90;;
78794;SDS011;68144;50.892;3.064;2023-03-08T02:10:35;4.00;;;2.80;;
78794;SDS011;68144;50.892;3.064;2023-03-08T02:11:07;3.70;;;2.50;;
78794;SDS011;68144;50.892;3.064;2023-03-08T02:11:38;3.20;;;2.90;;
78794;SDS011;68144;50.892;3.064;2023-03-08T02:13:11;3.40;;;2.80;;
78794;SDS011;68144;50.892;3.064;2023-03-08T02:13:45;3.00;;;2.60;;
78794;SDS011;68144;50.892;3.064;2023-03-08T02:14:16;3.30;;;3.00;;
78794;SDS011;68144;50.892;3.064;2023-03-08T02:15:19;3.30;;;2.70;;
78794;SDS011;68144;50.892;3.064;2023-03-08T02:16:25;2.90;;;2.60;;
78794;SDS011;68144;50.892;3.064;2023-03-08T02:16:57;3.20;;;2.50;;
78794;SDS011;68144;50.892;3.064;2023-03-08T02:17:27;3.50;;;2.60;;
78794;SDS011;68144;50.892;3.064;2023-03-08T02:18:29;3.00;;;2.40;;
78794;SDS011;68144;50.892;3.064;2023-03-08T02:19:01;3.10;;;2.60;;
78794;SDS011;68144;50.892;3.064;2023-03-08T02:19:47;3.70;;;3.00;;
78794;SDS011;68144;50.892;3.064;2023-03-08T02:20:28;4.20;;;2.80;;
78794;SDS011;68144;50.892;3.064;2023-03-08T02:21:01;3.50;;;3.10;;
78794;SDS011;68144;50.892;3.064;2023-03-08T02:22:12;5.70;;;2.80;;
78794;SDS011;68144;50.892;3.064;2023-03-08T02:23:46;3.00;;;2.70;;
78794;SDS011;68144;50.892;3.064;2023-03-08T02:24:18;4.80;;;2.30;;
78794;SDS011;68144;50.892;3.064;2023-03-08T02:24:51;2.90;;;2.50;;
78794;SDS011;68144;50.892;3.064;2023-03-08T02:25:23;3.20;;;2.60;;
78794;SDS011;68144;50.892;3.064;2023-03-08T02:26:02;3.10;;;2.40;;
78794;SDS011;68144;50.892;3.064;2023-03-08T02:26:33;3.40;;;2.60;;
78794;SDS011;68144;50.892;3.064;2023-03-08T02:27:06;2.60;;;2.40;;
78794;SDS011;68144;50.892;3.064;2023-03-08T02:27:39;3.20;;;2.90;;
78794;SDS011;68144;50.892;3.064;2023-03-08T02:28:10;3.30;;;3.10;;
78794;SDS011;68144;50.892;3.064;2023-03-08T02:28:41;3.50;;;2.70;;
78794;SDS011;68144;50.892;3.064;2023-03-08T02:29:42;3.30;;;2.50;;
78794;SDS011;68144;50.892;3.064;2023-03-08T02:30:14;3.10;;;2.60;;
78794;SDS011;68144;50.892;3.064;2023-03-08T02:31:18;3.20;;;2.40;;
78794;SDS011;68144;50.892;3.064;2023-03-08T02:31:49;3.00;;;2.70;;
78794;SDS011;68144;50.892;3.064;2023-03-08T02:32:19;2.60;;;2.40;;
78794;SDS011;68144;50.892;3.064;2023-03-08T02:32:50;3.40;;;3.10;;
78794;SDS011;68144;50.892;3.064;2023-03-08T02:33:21;3.50;;;3.00;;
78794;SDS011;68144;50.892;3.064;2023-03-08T02:33:53;3.40;;;3.10;;
78794;SDS011;68144;50.892;3.064;2023-03-08T02:34:23;3.00;;;2.40;;
78794;SDS011;68144;50.892;3.064;2023-03-08T02:34:54;2.70;;;2.40;;
78794;SDS011;68144;50.892;3.064;2023-03-08T02:35:25;2.60;;;2.20;;
78794;SDS011;68144;50.892;3.064;2023-03-08T02:35:56;3.30;;;2.50;;
78794;SDS011;68144;50.892;3.064;2023-03-08T02:36:27;2.80;;;2.50;;
78794;SDS011;68144;50.892;3.064;2023-03-08T02:36:58;3.10;;;2.60;;
78794;SDS011;68144;50.892;3.064;2023-03-08T02:37:30;2.70;;;2.40;;
78794;SDS011;68144;50.892;3.064;2023-03-08T02:38:01;2.60;;;2.40;;
78794;SDS011;68144;50.892;3.064;2023-03-08T02:38:31;3.50;;;2.70;;
78794;SDS011;68144;50.892;3.064;2023-03-08T02:39:02;3.70;;;1.90;;
78794;SDS011;68144;50.892;3.064;2023-03-08T02:39:33;2.50;;;2.20;;
78794;SDS011;68144;50.892;3.064;2023-03-08T02:40:03;2.30;;;2.00;;
78794;SDS011;68144;50.892;3.064;2023-03-08T02:40:35;3.40;;;2.90;;
78794;SDS011;68144;50.892;3.064;2023-03-08T02:41:06;3.40;;;2.40;;
78794;SDS011;68144;50.892;3.064;2023-03-08T02:41:37;4.60;;;2.20;;
78794;SDS011;68144;50.892;3.064;2023-03-08T02:42:09;3.00;;;2.20;;
78794;SDS011;68144;50.892;3.064;2023-03-08T02:42:39;3.10;;;2.50;;
78794;SDS011;68144;50.892;3.064;2023-03-08T02:43:10;2.40;;;1.80;;
78794;SDS011;68144;50.892;3.064;2023-03-08T02:43:43;3.50;;;2.20;;
78794;SDS011;68144;50.892;3.064;2023-03-08T02:44:13;3.00;;;2.40;;
78794;SDS011;68144;50.892;3.064;2023-03-08T02:44:44;3.20;;;2.20;;
78794;SDS011;68144;50.892;3.064;2023-03-08T02:45:14;2.80;;;2.10;;
78794;SDS011;68144;50.892;3.064;2023-03-08T02:45:45;2.70;;;2.10;;
78794;SDS011;68144;50.892;3.064;2023-03-08T02:46:16;3.20;;;1.90;;
78794;SDS011;68144;50.892;3.064;2023-03-08T02:46:46;2.90;;;2.00;;
78794;SDS011;68144;50.892;3.064;2023-03-08T02:47:17;2.30;;;2.10;;
78794;SDS011;68144;50.892;3.064;2023-03-08T02:47:47;3.40;;;2.10;;
78794;SDS011;68144;50.892;3.064;2023-03-08T02:48:18;2.90;;;2.60;;
78794;SDS011;68144;50.892;3.064;2023-03-08T02:48:50;3.40;;;2.20;;
78794;SDS011;68144;50.892;3.064;2023-03-08T02:49:24;2.50;;;2.10;;
78794;SDS011;68144;50.892;3.064;2023-03-08T02:49:55;3.00;;;2.50;;
78794;SDS011;68144;50.892;3.064;2023-03-08T02:50:26;3.70;;;3.30;;
78794;SDS011;68144;50.892;3.064;2023-03-08T02:50:57;3.00;;;2.20;;
78794;SDS011;68144;50.892;3.064;2023-03-08T02:51:27;4.20;;;2.20;;
78794;SDS011;68144;50.892;3.064;2023-03-08T02:51:58;2.80;;;2.10;;
78794;SDS011;68144;50.892;3.064;2023-03-08T02:52:28;2.70;;;2.10;;
78794;SDS011;68144;50.892;3.064;2023-03-08T02:52:59;3.00;;;2.30;;
78794;SDS011;68144;50.892;3.064;2023-03-08T02:53:29;2.90;;;2.50;;
78794;SDS011;68144;50.892;3.064;2023-03-08T02:54:00;2.60;;;2.40;;
78794;SDS011;68144;50.892;3.064;2023-03-08T02:54:31;2.60;;;2.40;;
78794;SDS011;68144;50.892;3.064;2023-03-08T02:55:01;2.70;;;2.20;;
78794;SDS011;68144;50.892;3.064;2023-03-08T02:55:32;3.50;;;2.10;;
78794;SDS011;68144;50.892;3.064;2023-03-08T02:56:06;2.50;;;1.90;;
78794;SDS011;68144;50.892;3.064;2023-03-08T02:56:37;3.90;;;2.70;;
78794;SDS011;68144;50.892;3.064;2023-03-08T02:57:08;2.40;;;2.10;;
78794;SDS011;68144;50.892;3.064;2023-03-08T02:57:39;3.00;;;2.40;;
78794;SDS011;68144;50.892;3.064;2023-03-08T02:58:10;2.30;;;2.10;;
78794;SDS011;68144;50.892;3.064;2023-03-08T02:58:40;2.50;;;2.00;;
78794;SDS011;68144;50.892;3.064;2023-03-08T02:59:11;2.70;;;2.00;;
78794;SDS011;68144;50.892;3.064;2023-03-08T02:59:42;2.20;;;2.00;;
78794;SDS011;68144;50.892;3.064;2023-03-08T03:00:12;2.70;;;2.00;;
78794;SDS011;68144;50.892;3.064;2023-03-08T03:00:43;2.00;;;1.70;;
78794;SDS011;68144;50.892;3.064;2023-03-08T03:01:14;2.90;;;2.10;;
78794;SDS011;68144;50.892;3.064;2023-03-08T03:01:45;2.60;;;2.10;;
78794;SDS011;68144;50.892;3.064;2023-03-08T03:02:16;3.60;;;2.40;;
78794;SDS011;68144;50.892;3.064;2023-03-08T03:02:47;2.50;;;2.00;;
78794;SDS011;68144;50.892;3.064;2023-03-08T03:03:17;2.80;;;1.80;;
78794;SDS011;68144;50.892;3.064;2023-03-08T03:03:48;2.50;;;1.80;;
78794;SDS011;68144;50.892;3.064;2023-03-08T03:04:19;3.30;;;1.90;;
78794;SDS011;68144;50.892;3.064;2023-03-08T03:04:50;3.20;;;1.90;;
78794;SDS011;68144;50.892;3.064;2023-03-08T03:05:21;3.80;;;2.10;;
78794;SDS011;68144;50.892;3.064;2023-03-08T03:05:51;2.30;;;1.80;;
78794;SDS011;68144;50.892;3.064;2023-03-08T03:06:27;3.40;;;1.90;;
78794;SDS011;68144;50.892;3.064;2023-03-08T03:06:59;2.40;;;1.80;;
78794;SDS011;68144;50.892;3.064;2023-03-08T03:07:33;2.90;;;2.40;;
78794;SDS011;68144;50.892;3.064;2023-03-08T03:08:05;2.30;;;1.80;;
78794;SDS011;68144;50.892;3.064;2023-03-08T03:08:35;2.60;;;2.00;;
78794;SDS011;68144;50.892;3.064;2023-03-08T03:09:06;2.60;;;2.10;;
78794;SDS011;68144;50.892;3.064;2023-03-08T03:09:38;2.80;;;2.10;;
78794;SDS011;68144;50.892;3.064;2023-03-08T03:10:09;2.90;;;2.40;;
78794;SDS011;68144;50.892;3.064;2023-03-08T03:10:41;2.60;;;2.20;;
78794;SDS011;68144;50.892;3.064;2023-03-08T03:11:12;2.60;;;2.20;;
78794;SDS011;68144;50.892;3.064;2023-03-08T03:11:44;3.60;;;2.00;;
78794;SDS011;68144;50.892;3.064;2023-03-08T03:12:15;2.60;;;1.90;;
78794;SDS011;68144;50.892;3.064;2023-03-08T03:12:45;2.50;;;2.10;;
78794;SDS011;68144;50.892;3.064;2023-03-08T03:13:19;3.30;;;2.40;;
78794;SDS011;68144;50.892;3.064;2023-03-08T03:13:54;2.40;;;2.00;;
78794;SDS011;68144;50.892;3.064;2023-03-08T03:14:26;2.40;;;2.20;;
78794;SDS011;68144;50.892;3.064;2023-03-08T03:14:59;2.60;;;2.10;;
78794;SDS011;68144;50.892;3.064;2023-03-08T03:15:32;2.10;;;1.60;;
78794;SDS011;68144;50.892;3.064;2023-03-08T03:16:14;1.40;;;1.30;;
78794;SDS011;68144;50.892;3.064;2023-03-08T03:17:15;2.60;;;2.40;;
78794;SDS011;68144;50.892;3.064;2023-03-08T03:17:46;2.90;;;2.60;;
78794;SDS011;68144;50.892;3.064;2023-03-08T03:18:47;2.20;;;2.00;;
78794;SDS011;68144;50.892;3.064;2023-03-08T03:19:18;2.20;;;1.70;;
78794;SDS011;68144;50.892;3.064;2023-03-08T03:19:48;2.30;;;1.70;;
78794;SDS011;68144;50.892;3.064;2023-03-08T03:20:50;2.40;;;1.80;;
78794;SDS011;68144;50.892;3.064;2023-03-08T03:21:20;2.90;;;1.60;;
78794;SDS011;68144;50.892;3.064;2023-03-08T03:22:22;1.90;;;1.60;;
78794;SDS011;68144;50.892;3.064;2023-03-08T03:22:52;5.80;;;2.50;;
78794;SDS011;68144;50.892;3.064;2023-03-08T03:23:27;3.00;;;2.10;;
78794;SDS011;68144;50.892;3.064;2023-03-08T03:23:58;3.50;;;1.80;;
78794;SDS011;68144;50.892;3.064;2023-03-08T03:24:36;1.70;;;1.60;;
78794;SDS011;68144;50.892;3.064;2023-03-08T03:25:06;2.10;;;1.50;;
78794;SDS011;68144;50.892;3.064;2023-03-08T03:25:37;2.70;;;1.80;;
78794;SDS011;68144;50.892;3.064;2023-03-08T03:26:11;2.30;;;1.60;;
78794;SDS011;68144;50.892;3.064;2023-03-08T03:26:43;3.60;;;1.70;;
78794;SDS011;68144;50.892;3.064;2023-03-08T03:27:13;1.90;;;1.60;;
78794;SDS011;68144;50.892;3.064;2023-03-08T03:28:15;1.90;;;1.60;;
78794;SDS011;68144;50.892;3.064;2023-03-08T03:29:16;3.30;;;3.10;;
78794;SDS011;68144;50.892;3.064;2023-03-08T03:29:48;2.20;;;2.00;;
78794;SDS011;68144;50.892;3.064;2023-03-08T03:30:19;2.00;;;1.60;;
78794;SDS011;68144;50.892;3.064;2023-03-08T03:31:21;3.70;;;2.10;;